sensor_id;sensor_type;location;lat;lon;timestamp;pressure;altitude;pressure_sealevel;temperature;humidity
25420;BME280;13354;48.174;11.566;2023-01-31T00:00:43;96353.09;;;2.48;77.04
25420;BME280;13354;48.174;11.566;2023-01-31T00:03:09;96348.56;;;2.50;77.21
25420;BME280;13354;48.174;11.566;2023-01-31T00:05:34;96349.03;;;2.55;77.05
25420;BME280;13354;48.174;11.566;2023-01-31T00:07:59;96342.25;;;2.53;76.83
25420;BME280;13354;48.174;11.566;2023-01-31T00:10:25;96354.06;;;2.47;76.90
25420;BME280;13354;48.174;11.566;2023-01-31T00:12:51;96347.16;;;2.46;77.32
25420;BME280;13354;48.174;11.566;2023-01-31T00:15:16;96354.88;;;2.48;77.51
25420;BME280;13354;48.174;11.566;2023-01-31T00:17:42;96355.75;;;2.37;77.90
25420;BME280;13354;48.174;11.566;2023-01-31T00:20:08;96356.72;;;2.36;77.66
25420;BME280;13354;48.174;11.566;2023-01-31T00:22:34;96364.63;;;2.46;77.78
25420;BME280;13354;48.174;11.566;2023-01-31T00:24:59;96352.75;;;2.41;77.44
25420;BME280;13354;48.174;11.566;2023-01-31T00:27:24;96364.97;;;2.52;77.75
25420;BME280;13354;48.174;11.566;2023-01-31T00:29:49;96353.16;;;2.37;77.70
25420;BME280;13354;48.174;11.566;2023-01-31T00:32:15;96353.47;;;2.44;77.58
25420;BME280;13354;48.174;11.566;2023-01-31T00:34:40;96352.38;;;2.46;77.60
25420;BME280;13354;48.174;11.566;2023-01-31T00:37:05;96348.50;;;2.40;77.64
25420;BME280;13354;48.174;11.566;2023-01-31T00:39:31;96357.06;;;2.31;77.82
25420;BME280;13354;48.174;11.566;2023-01-31T00:41:56;96352.97;;;2.50;77.61
25420;BME280;13354;48.174;11.566;2023-01-31T00:44:21;96352.59;;;2.54;77.46
25420;BME280;13354;48.174;11.566;2023-01-31T00:46:46;96349.06;;;2.44;77.88
25420;BME280;13354;48.174;11.566;2023-01-31T00:49:12;96347.88;;;2.48;78.21
25420;BME280;13354;48.174;11.566;2023-01-31T00:51:37;96350.28;;;2.40;78.05
25420;BME280;13354;48.174;11.566;2023-01-31T00:54:02;96357.31;;;2.39;78.22
25420;BME280;13354;48.174;11.566;2023-01-31T00:56:28;96357.31;;;2.39;78.20
25420;BME280;13354;48.174;11.566;2023-01-31T00:58:53;96360.94;;;2.48;77.99
25420;BME280;13354;48.174;11.566;2023-01-31T01:01:27;96353.69;;;2.52;77.70
25420;BME280;13354;48.174;11.566;2023-01-31T01:03:54;96344.06;;;2.73;77.22
25420;BME280;13354;48.174;11.566;2023-01-31T01:06:20;96356.38;;;2.61;77.02
25420;BME280;13354;48.174;11.566;2023-01-31T01:08:46;96356.00;;;2.66;77.13
25420;BME280;13354;48.174;11.566;2023-01-31T01:11:24;96361.28;;;2.55;77.10
25420;BME280;13354;48.174;11.566;2023-01-31T01:13:50;96361.84;;;2.58;77.41
25420;BME280;13354;48.174;11.566;2023-01-31T01:16:18;96360.03;;;2.38;77.67
25420;BME280;13354;48.174;11.566;2023-01-31T01:18:45;96360.69;;;2.51;77.79
25420;BME280;13354;48.174;11.566;2023-01-31T01:21:15;96365.72;;;2.43;77.82
25420;BME280;13354;48.174;11.566;2023-01-31T01:23:41;96367.91;;;2.59;77.77
25420;BME280;13354;48.174;11.566;2023-01-31T01:26:22;96363.22;;;2.41;77.98
25420;BME280;13354;48.174;11.566;2023-01-31T01:28:48;96368.72;;;2.59;77.23
25420;BME280;13354;48.174;11.566;2023-01-31T01:31:14;96368.28;;;2.54;77.36
25420;BME280;13354;48.174;11.566;2023-01-31T01:33:43;96372.88;;;2.62;76.91
25420;BME280;13354;48.174;11.566;2023-01-31T01:36:11;96370.28;;;2.62;76.79
25420;BME280;13354;48.174;11.566;2023-01-31T01:38:38;96372.94;;;2.51;77.21
25420;BME280;13354;48.174;11.566;2023-01-31T01:41:04;96377.59;;;2.68;76.54
25420;BME280;13354;48.174;11.566;2023-01-31T01:46:05;96375.59;;;2.60;76.42
25420;BME280;13354;48.174;11.566;2023-01-31T01:48:31;96374.97;;;2.68;76.38
25420;BME280;13354;48.174;11.566;2023-01-31T01:50:57;96377.34;;;2.71;76.06
25420;BME280;13354;48.174;11.566;2023-01-31T01:53:25;96383.44;;;2.60;76.31
25420;BME280;13354;48.174;11.566;2023-01-31T01:55:57;96384.91;;;2.53;76.63
25420;BME280;13354;48.174;11.566;2023-01-31T01:58:30;96379.97;;;2.71;76.45
25420;BME280;13354;48.174;11.566;2023-01-31T02:00:57;96378.59;;;2.56;76.97
25420;BME280;13354;48.174;11.566;2023-01-31T02:03:23;96378.50;;;2.46;77.28
25420;BME280;13354;48.174;11.566;2023-01-31T02:05:52;96394.13;;;2.36;77.76
25420;BME280;13354;48.174;11.566;2023-01-31T02:08:20;96403.41;;;2.29;77.93
25420;BME280;13354;48.174;11.566;2023-01-31T02:10:54;96401.34;;;2.44;77.97
25420;BME280;13354;48.174;11.566;2023-01-31T02:13:21;96409.81;;;2.36;77.49
25420;BME280;13354;48.174;11.566;2023-01-31T02:15:47;96401.88;;;2.27;78.14
25420;BME280;13354;48.174;11.566;2023-01-31T02:18:13;96405.47;;;2.47;77.19
25420;BME280;13354;48.174;11.566;2023-01-31T02:20:49;96408.97;;;2.36;77.82
25420;BME280;13354;48.174;11.566;2023-01-31T02:23:43;96404.78;;;2.45;77.68
25420;BME280;13354;48.174;11.566;2023-01-31T02:26:40;96415.09;;;2.46;77.68
25420;BME280;13354;48.174;11.566;2023-01-31T02:35:08;96414.91;;;2.38;78.14
25420;BME280;13354;48.174;11.566;2023-01-31T02:40:49;96423.47;;;2.40;77.52
25420;BME280;13354;48.174;11.566;2023-01-31T02:43:21;96416.31;;;2.42;77.88
25420;BME280;13354;48.174;11.566;2023-01-31T02:46:11;96415.84;;;2.37;78.05
25420;BME280;13354;48.174;11.566;2023-01-31T02:49:37;96399.69;;;2.43;77.47
25420;BME280;13354;48.174;11.566;2023-01-31T02:52:04;96408.25;;;2.34;77.60
25420;BME280;13354;48.174;11.566;2023-01-31T02:54:44;96410.59;;;2.48;77.25
25420;BME280;13354;48.174;11.566;2023-01-31T02:57:31;96425.84;;;2.32;77.36
25420;BME280;13354;48.174;11.566;2023-01-31T02:59:57;96419.63;;;2.44;77.19
25420;BME280;13354;48.174;11.566;2023-01-31T03:02:24;96423.47;;;2.40;77.21
25420;BME280;13354;48.174;11.566;2023-01-31T03:04:49;96416.78;;;2.47;76.76
25420;BME280;13354;48.174;11.566;2023-01-31T03:07:23;96425.66;;;2.56;76.30
25420;BME280;13354;48.174;11.566;2023-01-31T03:10:02;96426.66;;;2.44;76.45
25420;BME280;13354;48.174;11.566;2023-01-31T03:12:42;96426.94;;;2.29;77.21
25420;BME280;13354;48.174;11.566;2023-01-31T03:15:22;96435.69;;;2.28;76.99
25420;BME280;13354;48.174;11.566;2023-01-31T03:17:55;96440.34;;;2.36;76.79
25420;BME280;13354;48.174;11.566;2023-01-31T03:22:54;96434.66;;;2.20;77.01
25420;BME280;13354;48.174;11.566;2023-01-31T03:25:24;96437.38;;;2.29;76.59
25420;BME280;13354;48.174;11.566;2023-01-31T03:27:54;96450.22;;;2.10;77.16
25420;BME280;13354;48.174;11.566;2023-01-31T03:30:31;96454.03;;;2.06;77.80
25420;BME280;13354;48.174;11.566;2023-01-31T03:33:05;96442.13;;;2.13;77.50
25420;BME280;13354;48.174;11.566;2023-01-31T03:35:33;96457.50;;;2.06;77.85
25420;BME280;13354;48.174;11.566;2023-01-31T03:38:15;96452.25;;;2.17;77.24
25420;BME280;13354;48.174;11.566;2023-01-31T03:40:47;96463.63;;;2.16;77.43
25420;BME280;13354;48.174;11.566;2023-01-31T03:43:45;96466.63;;;2.12;77.51
25420;BME280;13354;48.174;11.566;2023-01-31T03:46:17;96472.56;;;2.14;77.23
25420;BME280;13354;48.174;11.566;2023-01-31T03:48:48;96480.03;;;2.07;77.32
25420;BME280;13354;48.174;11.566;2023-01-31T03:51:18;96480.03;;;2.18;77.29
25420;BME280;13354;48.174;11.566;2023-01-31T03:53:50;96486.91;;;2.08;77.55
25420;BME280;13354;48.174;11.566;2023-01-31T03:56:40;96482.53;;;1.98;78.21
25420;BME280;13354;48.174;11.566;2023-01-31T03:59:11;96471.84;;;2.12;77.43
25420;BME280;13354;48.174;11.566;2023-01-31T04:01:43;96476.22;;;2.11;77.63
25420;BME280;13354;48.174;11.566;2023-01-31T04:04:17;96485.13;;;1.98;77.92
25420;BME280;13354;48.174;11.566;2023-01-31T04:06:44;96482.28;;;2.01;77.82
25420;BME280;13354;48.174;11.566;2023-01-31T04:09:10;96478.94;;;2.10;77.95
25420;BME280;13354;48.174;11.566;2023-01-31T04:11:40;96485.97;;;1.98;77.74
25420;BME280;13354;48.174;11.566;2023-01-31T04:14:07;96492.28;;;1.96;78.18
25420;BME280;13354;48.174;11.566;2023-01-31T04:16:32;96494.63;;;1.99;78.26
25420;BME280;13354;48.174;11.566;2023-01-31T04:18:58;96490.50;;;1.85;78.39
25420;BME280;13354;48.174;11.566;2023-01-31T04:21:23;96501.88;;;1.84;78.71
25420;BME280;13354;48.174;11.566;2023-01-31T04:23:48;96494.88;;;1.96;78.65
25420;BME280;13354;48.174;11.566;2023-01-31T04:26:14;96507.81;;;1.75;79.03
25420;BME280;13354;48.174;11.566;2023-01-31T04:28:40;96501.03;;;1.94;78.29
25420;BME280;13354;48.174;11.566;2023-01-31T04:31:05;96505.66;;;1.91;78.29
25420;BME280;13354;48.174;11.566;2023-01-31T04:33:30;96504.25;;;1.87;78.59
25420;BME280;13354;48.174;11.566;2023-01-31T04:35:56;96506.03;;;1.86;78.47
25420;BME280;13354;48.174;11.566;2023-01-31T04:38:21;96511.38;;;1.85;78.63
25420;BME280;13354;48.174;11.566;2023-01-31T04:40:46;96517.50;;;1.73;78.56
25420;BME280;13354;48.174;11.566;2023-01-31T04:43:12;96519.91;;;1.76;78.70
25420;BME280;13354;48.174;11.566;2023-01-31T04:45:37;96514.31;;;1.80;78.18
25420;BME280;13354;48.174;11.566;2023-01-31T04:48:03;96523.09;;;1.79;78.51
25420;BME280;13354;48.174;11.566;2023-01-31T04:50:29;96524.91;;;1.79;78.50
25420;BME280;13354;48.174;11.566;2023-01-31T04:52:54;96525.47;;;1.71;78.49
25420;BME280;13354;48.174;11.566;2023-01-31T04:55:20;96518.84;;;1.78;78.36
25420;BME280;13354;48.174;11.566;2023-01-31T04:57:45;96534.88;;;1.85;78.27
25420;BME280;13354;48.174;11.566;2023-01-31T05:00:11;96524.91;;;1.90;77.88
25420;BME280;13354;48.174;11.566;2023-01-31T05:02:36;96529.75;;;1.83;78.15
25420;BME280;13354;48.174;11.566;2023-01-31T05:05:03;96538.53;;;1.82;78.07
25420;BME280;13354;48.174;11.566;2023-01-31T05:07:29;96543.19;;;1.90;77.91
25420;BME280;13354;48.174;11.566;2023-01-31T05:09:54;96541.16;;;1.82;78.24
25420;BME280;13354;48.174;11.566;2023-01-31T05:12:19;96540.44;;;1.80;78.35
25420;BME280;13354;48.174;11.566;2023-01-31T05:14:44;96538.19;;;1.76;78.05
25420;BME280;13354;48.174;11.566;2023-01-31T05:17:10;96532.47;;;1.59;78.78
25420;BME280;13354;48.174;11.566;2023-01-31T05:19:35;96538.28;;;1.63;78.46
25420;BME280;13354;48.174;11.566;2023-01-31T05:22:00;96545.75;;;1.56;79.00
25420;BME280;13354;48.174;11.566;2023-01-31T05:24:30;96549.78;;;1.60;79.08
25420;BME280;13354;48.174;11.566;2023-01-31T05:26:57;96546.50;;;1.69;78.81
25420;BME280;13354;48.174;11.566;2023-01-31T05:29:31;96549.03;;;1.58;78.82
25420;BME280;13354;48.174;11.566;2023-01-31T05:31:57;96540.31;;;1.71;78.67
25420;BME280;13354;48.174;11.566;2023-01-31T05:34:24;96546.50;;;1.69;78.63
25420;BME280;13354;48.174;11.566;2023-01-31T05:36:52;96546.59;;;1.79;77.95
25420;BME280;13354;48.174;11.566;2023-01-31T05:39:17;96545.16;;;1.64;78.38
25420;BME280;13354;48.174;11.566;2023-01-31T05:41:43;96547.53;;;1.67;78.48
25420;BME280;13354;48.174;11.566;2023-01-31T05:44:08;96541.50;;;1.66;77.59
25420;BME280;13354;48.174;11.566;2023-01-31T05:46:35;96543.03;;;1.80;77.56
25420;BME280;13354;48.174;11.566;2023-01-31T05:49:00;96552.63;;;1.68;78.07
25420;BME280;13354;48.174;11.566;2023-01-31T05:51:25;96560.25;;;1.72;77.91
25420;BME280;13354;48.174;11.566;2023-01-31T05:53:50;96560.47;;;1.68;77.73
25420;BME280;13354;48.174;11.566;2023-01-31T05:56:16;96560.38;;;1.70;77.86
25420;BME280;13354;48.174;11.566;2023-01-31T05:58:41;96563.44;;;1.64;77.84
25420;BME280;13354;48.174;11.566;2023-01-31T06:01:07;96567.00;;;1.63;78.15
25420;BME280;13354;48.174;11.566;2023-01-31T06:03:33;96563.44;;;1.64;77.58
25420;BME280;13354;48.174;11.566;2023-01-31T06:05:58;96553.00;;;1.64;77.60
25420;BME280;13354;48.174;11.566;2023-01-31T06:08:23;96551.41;;;1.50;77.84
25420;BME280;13354;48.174;11.566;2023-01-31T06:10:49;96548.63;;;1.76;77.12
25420;BME280;13354;48.174;11.566;2023-01-31T06:13:14;96546.22;;;1.73;77.00
25420;BME280;13354;48.174;11.566;2023-01-31T06:15:43;96537.81;;;1.80;76.84
25420;BME280;13354;48.174;11.566;2023-01-31T06:18:09;96547.78;;;1.64;76.97
25420;BME280;13354;48.174;11.566;2023-01-31T06:20:34;96545.41;;;1.72;76.78
25420;BME280;13354;48.174;11.566;2023-01-31T06:23:00;96541.13;;;1.71;76.64
25420;BME280;13354;48.174;11.566;2023-01-31T06:25:25;96535.16;;;1.58;76.79
25420;BME280;13354;48.174;11.566;2023-01-31T06:27:51;96541.00;;;1.73;76.27
25420;BME280;13354;48.174;11.566;2023-01-31T06:30:16;96536.75;;;1.83;75.90
25420;BME280;13354;48.174;11.566;2023-01-31T06:32:41;96553.22;;;1.61;76.13
25420;BME280;13354;48.174;11.566;2023-01-31T06:35:07;96557.25;;;1.65;76.34
25420;BME280;13354;48.174;11.566;2023-01-31T06:37:32;96557.97;;;1.67;76.59
25420;BME280;13354;48.174;11.566;2023-01-31T06:39:57;96564.78;;;1.81;76.34
25420;BME280;13354;48.174;11.566;2023-01-31T06:42:23;96557.75;;;1.70;76.12
25420;BME280;13354;48.174;11.566;2023-01-31T06:44:49;96561.06;;;1.72;75.85
25420;BME280;13354;48.174;11.566;2023-01-31T06:47:14;96564.19;;;1.88;75.64
25420;BME280;13354;48.174;11.566;2023-01-31T06:49:39;96562.03;;;1.82;75.69
25420;BME280;13354;48.174;11.566;2023-01-31T06:52:05;96560.84;;;1.86;75.32
25420;BME280;13354;48.174;11.566;2023-01-31T06:54:30;96555.41;;;1.78;75.68
25420;BME280;13354;48.174;11.566;2023-01-31T06:56:56;96571.16;;;1.77;75.86
25420;BME280;13354;48.174;11.566;2023-01-31T06:59:21;96577.34;;;1.87;75.58
25420;BME280;13354;48.174;11.566;2023-01-31T07:01:46;96582.94;;;1.93;75.74
25420;BME280;13354;48.174;11.566;2023-01-31T07:04:12;96593.25;;;1.84;75.71
25420;BME280;13354;48.174;11.566;2023-01-31T07:06:37;96587.09;;;1.85;75.31
25420;BME280;13354;48.174;11.566;2023-01-31T07:09:02;96591.50;;;1.84;75.02
25420;BME280;13354;48.174;11.566;2023-01-31T07:11:27;96594.81;;;1.86;75.42
25420;BME280;13354;48.174;11.566;2023-01-31T07:13:53;96589.81;;;1.83;75.41
25420;BME280;13354;48.174;11.566;2023-01-31T07:16:18;96586.00;;;1.76;75.49
25420;BME280;13354;48.174;11.566;2023-01-31T07:18:44;96582.31;;;1.67;75.94
25420;BME280;13354;48.174;11.566;2023-01-31T07:21:09;96582.34;;;1.90;75.23
25420;BME280;13354;48.174;11.566;2023-01-31T07:23:35;96583.06;;;1.81;75.26
25420;BME280;13354;48.174;11.566;2023-01-31T07:26:02;96583.34;;;1.65;75.62
25420;BME280;13354;48.174;11.566;2023-01-31T07:28:28;96594.63;;;1.65;75.80
25420;BME280;13354;48.174;11.566;2023-01-31T07:30:53;96592.97;;;1.64;75.33
25420;BME280;13354;48.174;11.566;2023-01-31T07:33:18;96586.72;;;1.78;75.16
25420;BME280;13354;48.174;11.566;2023-01-31T07:35:44;96585.09;;;1.88;74.63
25420;BME280;13354;48.174;11.566;2023-01-31T07:38:09;96584.34;;;1.75;74.90
25420;BME280;13354;48.174;11.566;2023-01-31T07:40:34;96582.19;;;1.80;74.82
25420;BME280;13354;48.174;11.566;2023-01-31T07:43:00;96595.59;;;1.64;74.91
25420;BME280;13354;48.174;11.566;2023-01-31T07:45:26;96585.78;;;1.79;74.52
25420;BME280;13354;48.174;11.566;2023-01-31T07:47:52;96583.50;;;1.75;74.36
25420;BME280;13354;48.174;11.566;2023-01-31T07:50:18;96589.78;;;1.72;74.70
25420;BME280;13354;48.174;11.566;2023-01-31T07:52:43;96583.28;;;1.78;74.73
25420;BME280;13354;48.174;11.566;2023-01-31T07:55:09;96585.78;;;1.90;74.02
25420;BME280;13354;48.174;11.566;2023-01-31T07:57:34;96584.72;;;1.82;73.81
25420;BME280;13354;48.174;11.566;2023-01-31T07:59:59;96584.88;;;1.91;74.23
25420;BME280;13354;48.174;11.566;2023-01-31T08:02:25;96599.06;;;1.87;73.98
25420;BME280;13354;48.174;11.566;2023-01-31T08:05:09;96599.06;;;1.76;74.53
25420;BME280;13354;48.174;11.566;2023-01-31T08:07:36;96588.00;;;1.73;74.30
25420;BME280;13354;48.174;11.566;2023-01-31T08:10:01;96599.19;;;1.86;74.58
25420;BME280;13354;48.174;11.566;2023-01-31T08:12:27;96572.13;;;1.87;73.99
25420;BME280;13354;48.174;11.566;2023-01-31T08:14:52;96583.78;;;1.94;73.52
25420;BME280;13354;48.174;11.566;2023-01-31T08:17:18;96581.75;;;1.86;73.73
25420;BME280;13354;48.174;11.566;2023-01-31T08:19:43;96583.66;;;1.84;73.68
25420;BME280;13354;48.174;11.566;2023-01-31T08:22:08;96586.97;;;1.86;73.72
25420;BME280;13354;48.174;11.566;2023-01-31T08:24:34;96600.88;;;1.98;73.09
25420;BME280;13354;48.174;11.566;2023-01-31T08:26:59;96588.97;;;1.83;73.45
25420;BME280;13354;48.174;11.566;2023-01-31T08:29:25;96590.66;;;1.95;72.86
25420;BME280;13354;48.174;11.566;2023-01-31T08:31:51;96595.06;;;2.06;72.84
25420;BME280;13354;48.174;11.566;2023-01-31T08:34:16;96593.06;;;2.09;72.77
25420;BME280;13354;48.174;11.566;2023-01-31T08:36:42;96590.69;;;2.06;72.54
25420;BME280;13354;48.174;11.566;2023-01-31T08:39:08;96595.56;;;2.22;72.14
25420;BME280;13354;48.174;11.566;2023-01-31T08:41:34;96591.53;;;2.18;72.27
25420;BME280;13354;48.174;11.566;2023-01-31T08:44:00;96596.53;;;2.21;71.73
25420;BME280;13354;48.174;11.566;2023-01-31T08:46:30;96600.44;;;2.27;71.24
25420;BME280;13354;48.174;11.566;2023-01-31T08:48:56;96594.25;;;2.50;70.43
25420;BME280;13354;48.174;11.566;2023-01-31T08:51:21;96586.88;;;2.78;69.78
25420;BME280;13354;48.174;11.566;2023-01-31T08:53:47;96598.63;;;2.83;69.50
25420;BME280;13354;48.174;11.566;2023-01-31T08:56:13;96586.38;;;3.27;67.90
25420;BME280;13354;48.174;11.566;2023-01-31T08:58:40;96585.59;;;3.48;66.81
25420;BME280;13354;48.174;11.566;2023-01-31T09:01:14;96575.09;;;3.80;66.14
25420;BME280;13354;48.174;11.566;2023-01-31T09:03:40;96579.44;;;3.91;65.01
25420;BME280;13354;48.174;11.566;2023-01-31T09:06:09;96582.03;;;4.42;63.36
25420;BME280;13354;48.174;11.566;2023-01-31T09:08:35;96585.69;;;4.30;62.95
25420;BME280;13354;48.174;11.566;2023-01-31T09:11:00;96588.34;;;4.70;62.35
25420;BME280;13354;48.174;11.566;2023-01-31T09:13:27;96580.47;;;4.70;61.41
25420;BME280;13354;48.174;11.566;2023-01-31T09:16:09;96584.88;;;4.70;60.67
25420;BME280;13354;48.174;11.566;2023-01-31T09:18:36;96565.13;;;5.16;59.65
25420;BME280;13354;48.174;11.566;2023-01-31T09:21:07;96575.06;;;5.22;59.68
25420;BME280;13354;48.174;11.566;2023-01-31T09:23:34;96572.03;;;5.36;59.38
25420;BME280;13354;48.174;11.566;2023-01-31T09:25:59;96575.63;;;5.45;58.66
25420;BME280;13354;48.174;11.566;2023-01-31T09:28:26;96582.38;;;5.76;57.83
25420;BME280;13354;48.174;11.566;2023-01-31T09:30:52;96583.34;;;5.85;57.12
25420;BME280;13354;48.174;11.566;2023-01-31T09:33:18;96588.34;;;5.69;57.02
25420;BME280;13354;48.174;11.566;2023-01-31T09:35:58;96590.41;;;5.85;56.87
25420;BME280;13354;48.174;11.566;2023-01-31T09:38:24;96582.66;;;5.83;56.31
25420;BME280;13354;48.174;11.566;2023-01-31T09:40:51;96599.00;;;5.57;56.57
25420;BME280;13354;48.174;11.566;2023-01-31T09:43:18;96603.66;;;5.25;57.91
25420;BME280;13354;48.174;11.566;2023-01-31T09:45:47;96601.56;;;5.09;58.29
25420;BME280;13354;48.174;11.566;2023-01-31T09:48:21;96594.00;;;5.35;57.46
25420;BME280;13354;48.174;11.566;2023-01-31T09:50:52;96592.72;;;5.10;57.78
25420;BME280;13354;48.174;11.566;2023-01-31T09:53:24;96594.13;;;5.04;58.31
25420;BME280;13354;48.174;11.566;2023-01-31T10:04:37;96608.13;;;4.44;59.05
25420;BME280;13354;48.174;11.566;2023-01-31T10:12:18;96608.72;;;4.26;60.46
25420;BME280;13354;48.174;11.566;2023-01-31T10:14:59;96588.41;;;4.19;60.23
25420;BME280;13354;48.174;11.566;2023-01-31T10:20:04;96574.44;;;3.87;60.08
25420;BME280;13354;48.174;11.566;2023-01-31T10:22:38;96568.41;;;3.97;59.68
25420;BME280;13354;48.174;11.566;2023-01-31T10:25:26;96558.91;;;3.75;60.04
25420;BME280;13354;48.174;11.566;2023-01-31T10:28:03;96573.84;;;3.63;60.81
25420;BME280;13354;48.174;11.566;2023-01-31T10:35:50;96558.84;;;3.86;59.77
25420;BME280;13354;48.174;11.566;2023-01-31T10:38:30;96553.66;;;3.75;60.44
25420;BME280;13354;48.174;11.566;2023-01-31T10:41:05;96554.94;;;3.80;60.29
25420;BME280;13354;48.174;11.566;2023-01-31T10:43:38;96555.28;;;3.87;59.18
25420;BME280;13354;48.174;11.566;2023-01-31T10:46:10;96558.16;;;3.84;59.31
25420;BME280;13354;48.174;11.566;2023-01-31T10:48:35;96558.53;;;3.79;59.56
25420;BME280;13354;48.174;11.566;2023-01-31T10:56:10;96548.50;;;3.84;60.46
25420;BME280;13354;48.174;11.566;2023-01-31T10:58:37;96539.16;;;3.92;60.29
25420;BME280;13354;48.174;11.566;2023-01-31T11:01:05;96541.53;;;3.95;60.57
25420;BME280;13354;48.174;11.566;2023-01-31T11:03:35;96534.75;;;3.92;60.77
25420;BME280;13354;48.174;11.566;2023-01-31T11:06:01;96527.31;;;3.97;60.72
25420;BME280;13354;48.174;11.566;2023-01-31T11:08:32;96527.63;;;4.04;61.08
25420;BME280;13354;48.174;11.566;2023-01-31T11:11:05;96523.09;;;4.06;60.48
25420;BME280;13354;48.174;11.566;2023-01-31T11:13:30;96522.28;;;4.05;60.69
25420;BME280;13354;48.174;11.566;2023-01-31T11:15:56;96513.78;;;3.92;60.74
25420;BME280;13354;48.174;11.566;2023-01-31T11:18:27;96504.75;;;4.06;60.89
25420;BME280;13354;48.174;11.566;2023-01-31T11:20:53;96510.13;;;4.04;61.33
25420;BME280;13354;48.174;11.566;2023-01-31T11:23:24;96506.06;;;3.91;61.65
25420;BME280;13354;48.174;11.566;2023-01-31T11:25:51;96503.47;;;4.00;61.25
25420;BME280;13354;48.174;11.566;2023-01-31T11:28:38;96493.22;;;3.87;61.17
25420;BME280;13354;48.174;11.566;2023-01-31T11:31:07;96489.09;;;3.64;62.52
25420;BME280;13354;48.174;11.566;2023-01-31T11:33:54;96489.38;;;3.61;62.52
25420;BME280;13354;48.174;11.566;2023-01-31T11:36:19;96481.78;;;3.58;62.72
25420;BME280;13354;48.174;11.566;2023-01-31T11:38:48;96471.16;;;3.59;63.10
25420;BME280;13354;48.174;11.566;2023-01-31T11:41:31;96469.38;;;3.60;63.14
25420;BME280;13354;48.174;11.566;2023-01-31T11:44:10;96481.88;;;3.56;63.34
25420;BME280;13354;48.174;11.566;2023-01-31T11:46:56;96470.84;;;3.53;63.59
25420;BME280;13354;48.174;11.566;2023-01-31T11:49:28;96465.66;;;3.62;63.77
25420;BME280;13354;48.174;11.566;2023-01-31T11:51:57;96464.19;;;3.70;63.56
25420;BME280;13354;48.174;11.566;2023-01-31T11:54:28;96457.41;;;3.67;63.59
25420;BME280;13354;48.174;11.566;2023-01-31T11:56:56;96436.69;;;3.54;63.72
25420;BME280;13354;48.174;11.566;2023-01-31T11:59:26;96430.06;;;3.50;63.92
25420;BME280;13354;48.174;11.566;2023-01-31T12:01:55;96427.69;;;3.47;64.35
25420;BME280;13354;48.174;11.566;2023-01-31T12:04:29;96439.06;;;3.57;63.78
25420;BME280;13354;48.174;11.566;2023-01-31T12:07:00;96438.09;;;3.58;63.90
25420;BME280;13354;48.174;11.566;2023-01-31T12:09:29;96424.19;;;3.68;63.60
25420;BME280;13354;48.174;11.566;2023-01-31T12:12:00;96417.72;;;3.62;64.40
25420;BME280;13354;48.174;11.566;2023-01-31T12:14:40;96405.34;;;3.74;64.10
25420;BME280;13354;48.174;11.566;2023-01-31T12:17:11;96397.75;;;3.71;64.14
25420;BME280;13354;48.174;11.566;2023-01-31T12:19:57;96399.03;;;3.86;63.82
25420;BME280;13354;48.174;11.566;2023-01-31T12:22:32;96408.53;;;3.77;64.10
25420;BME280;13354;48.174;11.566;2023-01-31T12:25:13;96426.44;;;3.72;63.98
25420;BME280;13354;48.174;11.566;2023-01-31T12:27:57;96421.31;;;3.71;64.49
25420;BME280;13354;48.174;11.566;2023-01-31T12:30:40;96425.22;;;3.76;64.64
25420;BME280;13354;48.174;11.566;2023-01-31T12:44:06;96407.53;;;3.69;64.63
25420;BME280;13354;48.174;11.566;2023-01-31T12:52:39;96371.03;;;3.77;64.81
25420;BME280;13354;48.174;11.566;2023-01-31T12:55:11;96390.50;;;3.84;64.69
25420;BME280;13354;48.174;11.566;2023-01-31T12:58:03;96402.72;;;3.74;64.69
25420;BME280;13354;48.174;11.566;2023-01-31T13:00:44;96404.06;;;3.99;64.24
25420;BME280;13354;48.174;11.566;2023-01-31T13:03:30;96391.66;;;4.01;64.02
25420;BME280;13354;48.174;11.566;2023-01-31T13:06:06;96386.13;;;4.04;63.97
25420;BME280;13354;48.174;11.566;2023-01-31T13:08:34;96381.09;;;4.31;63.93
25420;BME280;13354;48.174;11.566;2023-01-31T13:11:14;96354.34;;;4.47;62.89
25420;BME280;13354;48.174;11.566;2023-01-31T13:13:51;96357.78;;;4.48;62.84
25420;BME280;13354;48.174;11.566;2023-01-31T13:18:51;96353.50;;;4.56;62.13
25420;BME280;13354;48.174;11.566;2023-01-31T13:21:22;96368.56;;;4.64;62.46
25420;BME280;13354;48.174;11.566;2023-01-31T13:23:54;96373.69;;;4.75;62.03
25420;BME280;13354;48.174;11.566;2023-01-31T13:26:31;96365.94;;;4.54;61.80
25420;BME280;13354;48.174;11.566;2023-01-31T13:29:14;96347.44;;;4.66;61.77
25420;BME280;13354;48.174;11.566;2023-01-31T13:31:45;96335.97;;;4.67;62.17
25420;BME280;13354;48.174;11.566;2023-01-31T13:34:16;96332.00;;;4.53;62.27
25420;BME280;13354;48.174;11.566;2023-01-31T13:36:56;96327.28;;;4.56;61.94
25420;BME280;13354;48.174;11.566;2023-01-31T13:39:33;96324.66;;;4.56;62.16
25420;BME280;13354;48.174;11.566;2023-01-31T13:42:00;96319.56;;;4.26;63.13
25420;BME280;13354;48.174;11.566;2023-01-31T13:44:25;96312.13;;;4.31;62.75
25420;BME280;13354;48.174;11.566;2023-01-31T13:47:02;96320.25;;;4.28;63.23
25420;BME280;13354;48.174;11.566;2023-01-31T13:49:37;96311.41;;;4.19;63.14
25420;BME280;13354;48.174;11.566;2023-01-31T13:52:21;96308.94;;;4.18;63.46
25420;BME280;13354;48.174;11.566;2023-01-31T13:54:50;96304.22;;;4.11;63.56
25420;BME280;13354;48.174;11.566;2023-01-31T14:00:03;96311.28;;;4.11;63.82
25420;BME280;13354;48.174;11.566;2023-01-31T14:02:29;96305.91;;;4.13;63.92
25420;BME280;13354;48.174;11.566;2023-01-31T14:05:06;96314.28;;;3.97;64.45
25420;BME280;13354;48.174;11.566;2023-01-31T14:10:53;96318.28;;;3.91;64.53
25420;BME280;13354;48.174;11.566;2023-01-31T14:13:42;96314.28;;;3.97;64.05
25420;BME280;13354;48.174;11.566;2023-01-31T14:16:42;96316.63;;;4.00;63.43
25420;BME280;13354;48.174;11.566;2023-01-31T14:33:03;96291.53;;;4.07;63.75